sensor_id;sensor_type;location;lat;lon;timestamp;pressure;altitude;pressure_sealevel;temperature;humidity
43155;BME280;34212;51.018;13.586;2023-05-03T05:04:18;98940.97;;;9.28;71.43
43155;BME280;34212;51.018;13.586;2023-05-03T05:09:25;98939.13;;;9.38;71.66
43155;BME280;34212;51.018;13.586;2023-05-03T05:14:30;98944.56;;;9.46;70.34
43155;BME280;34212;51.018;13.586;2023-05-03T05:19:34;98959.13;;;9.52;70.43
43155;BME280;34212;51.018;13.586;2023-05-03T05:24:38;98963.69;;;9.59;70.26
43155;BME280;34212;51.018;13.586;2023-05-03T05:29:42;98969.31;;;9.66;69.11
43155;BME280;34212;51.018;13.586;2023-05-03T05:34:44;98972.81;;;9.66;68.98
43155;BME280;34212;51.018;13.586;2023-05-03T05:39:51;98974.78;;;9.64;68.60
43155;BME280;34212;51.018;13.586;2023-05-03T05:44:55;98979.81;;;9.67;69.27
43155;BME280;34212;51.018;13.586;2023-05-03T05:50:02;98975.84;;;9.71;68.43
43155;BME280;34212;51.018;13.586;2023-05-03T05:55:28;98984.00;;;9.70;68.61
43155;BME280;34212;51.018;13.586;2023-05-03T06:00:32;98980.06;;;9.74;68.32
43155;BME280;34212;51.018;13.586;2023-05-03T06:05:36;98990.97;;;9.81;68.05
43155;BME280;34212;51.018;13.586;2023-05-03T06:10:38;98995.41;;;9.90;67.64
43155;BME280;34212;51.018;13.586;2023-05-03T06:15:43;98999.28;;;10.05;67.93
43155;BME280;34212;51.018;13.586;2023-05-03T06:20:48;98988.31;;;10.08;66.79
43155;BME280;34212;51.018;13.586;2023-05-03T06:25:51;98989.75;;;10.03;66.82
43155;BME280;34212;51.018;13.586;2023-05-03T06:30:57;98996.25;;;10.00;67.30
43155;BME280;34212;51.018;13.586;2023-05-03T06:36:04;99001.59;;;9.90;66.33
43155;BME280;34212;51.018;13.586;2023-05-03T06:41:11;98996.41;;;9.89;66.40
43155;BME280;34212;51.018;13.586;2023-05-03T06:46:15;99000.31;;;9.94;66.97
43155;BME280;34212;51.018;13.586;2023-05-03T06:51:24;99006.44;;;10.05;67.08
43155;BME280;34212;51.018;13.586;2023-05-03T06:56:33;99000.97;;;10.06;66.48
43155;BME280;34212;51.018;13.586;2023-05-03T07:01:34;99001.66;;;10.08;66.38
43155;BME280;34212;51.018;13.586;2023-05-03T07:06:44;99001.91;;;10.15;66.17
43155;BME280;34212;51.018;13.586;2023-05-03T07:11:59;99008.22;;;10.14;65.92
43155;BME280;34212;51.018;13.586;2023-05-03T07:17:03;98998.94;;;10.18;65.39
43155;BME280;34212;51.018;13.586;2023-05-03T07:22:08;98996.97;;;10.20;64.42
43155;BME280;34212;51.018;13.586;2023-05-03T07:27:10;98999.09;;;10.26;64.75
43155;BME280;34212;51.018;13.586;2023-05-03T07:32:11;98992.03;;;10.35;64.61
43155;BME280;34212;51.018;13.586;2023-05-03T07:37:20;98985.16;;;10.32;62.99
43155;BME280;34212;51.018;13.586;2023-05-03T07:42:21;98989.06;;;10.38;63.62
43155;BME280;34212;51.018;13.586;2023-05-03T07:47:25;98989.53;;;10.51;62.50
43155;BME280;34212;51.018;13.586;2023-05-03T07:52:28;98988.53;;;10.52;62.77
43155;BME280;34212;51.018;13.586;2023-05-03T07:57:29;98992.28;;;10.59;62.34
43155;BME280;34212;51.018;13.586;2023-05-03T08:02:34;98986.72;;;10.71;62.27
43155;BME280;34212;51.018;13.586;2023-05-03T08:07:38;98998.00;;;10.82;62.26
43155;BME280;34212;51.018;13.586;2023-05-03T08:12:40;98986.72;;;10.89;61.76
43155;BME280;34212;51.018;13.586;2023-05-03T08:17:45;98990.22;;;10.89;61.18
43155;BME280;34212;51.018;13.586;2023-05-03T08:22:53;98989.22;;;10.90;60.80
43155;BME280;34212;51.018;13.586;2023-05-03T08:27:58;98994.25;;;10.93;60.48
43155;BME280;34212;51.018;13.586;2023-05-03T08:32:59;98982.91;;;10.91;60.88
43155;BME280;34212;51.018;13.586;2023-05-03T08:38:03;98982.44;;;11.14;61.05
43155;BME280;34212;51.018;13.586;2023-05-03T08:43:12;98992.69;;;11.44;60.99
43155;BME280;34212;51.018;13.586;2023-05-03T08:48:19;98995.06;;;11.55;60.28
43155;BME280;34212;51.018;13.586;2023-05-03T08:53:24;98998.94;;;11.35;59.88
43155;BME280;34212;51.018;13.586;2023-05-03T08:58:25;98996.88;;;11.47;60.17
43155;BME280;34212;51.018;13.586;2023-05-03T09:03:34;98984.22;;;11.83;59.92
43155;BME280;34212;51.018;13.586;2023-05-03T09:08:41;98980.44;;;12.28;59.16
43155;BME280;34212;51.018;13.586;2023-05-03T09:13:43;98981.50;;;12.52;59.41
43155;BME280;34212;51.018;13.586;2023-05-03T09:18:58;98989.19;;;12.46;58.27
43155;BME280;34212;51.018;13.586;2023-05-03T09:30:17;98978.22;;;12.82;59.15
43155;BME280;34212;51.018;13.586;2023-05-03T09:35:19;98985.53;;;12.64;58.54
43155;BME280;34212;51.018;13.586;2023-05-03T09:40:27;98982.81;;;12.39;57.86
43155;BME280;34212;51.018;13.586;2023-05-03T09:45:29;98982.81;;;12.39;58.45
43155;BME280;34212;51.018;13.586;2023-05-03T09:50:32;98982.84;;;12.47;58.44
43155;BME280;34212;51.018;13.586;2023-05-03T09:55:38;98980.13;;;12.31;57.76
43155;BME280;34212;51.018;13.586;2023-05-03T10:00:40;98979.78;;;12.34;58.12
43155;BME280;34212;51.018;13.586;2023-05-03T10:05:52;98974.81;;;12.47;58.33
43155;BME280;34212;51.018;13.586;2023-05-03T10:11:03;98967.28;;;12.51;57.30
43155;BME280;34212;51.018;13.586;2023-05-03T10:16:12;98964.78;;;12.58;57.69
43155;BME280;34212;51.018;13.586;2023-05-03T10:21:23;98964.16;;;12.80;57.68
43155;BME280;34212;51.018;13.586;2023-05-03T10:26:32;98966.00;;;13.04;57.29
43155;BME280;34212;51.018;13.586;2023-05-03T10:31:45;98966.16;;;13.11;56.68
43155;BME280;34212;51.018;13.586;2023-05-03T10:36:48;98957.16;;;13.12;57.43
43155;BME280;34212;51.018;13.586;2023-05-03T10:42:01;98958.47;;;13.08;56.30
43155;BME280;34212;51.018;13.586;2023-05-03T10:47:16;98959.81;;;13.04;56.71
43155;BME280;34212;51.018;13.586;2023-05-03T10:57:45;98948.63;;;13.08;56.17
43155;BME280;34212;51.018;13.586;2023-05-03T11:03:08;98955.78;;;13.08;56.57
43155;BME280;34212;51.018;13.586;2023-05-03T11:08:20;98947.44;;;13.03;56.82
43155;BME280;34212;51.018;13.586;2023-05-03T11:13:22;98957.50;;;13.09;57.22
43155;BME280;34212;51.018;13.586;2023-05-03T11:18:41;98945.41;;;13.05;55.52
43155;BME280;34212;51.018;13.586;2023-05-03T11:24:02;98958.31;;;13.09;56.68
43155;BME280;34212;51.018;13.586;2023-05-03T11:29:14;98948.25;;;13.20;56.58
43155;BME280;34212;51.018;13.586;2023-05-03T11:34:28;98938.56;;;13.27;56.50
43155;BME280;34212;51.018;13.586;2023-05-03T11:39:46;98940.06;;;13.21;55.82
43155;BME280;34212;51.018;13.586;2023-05-03T11:44:54;98938.06;;;13.15;57.53
43155;BME280;34212;51.018;13.586;2023-05-03T11:50:25;98939.44;;;13.27;56.37
43155;BME280;34212;51.018;13.586;2023-05-03T11:55:29;98939.09;;;13.30;56.99
43155;BME280;34212;51.018;13.586;2023-05-03T12:00:31;98949.28;;;13.43;56.54
43155;BME280;34212;51.018;13.586;2023-05-03T12:05:52;98942.56;;;13.47;55.68
43155;BME280;34212;51.018;13.586;2023-05-03T12:11:13;98948.59;;;13.41;55.63
43155;BME280;34212;51.018;13.586;2023-05-03T12:16:26;98933.72;;;13.30;55.89
43155;BME280;34212;51.018;13.586;2023-05-03T12:21:46;98925.03;;;13.28;54.62
43155;BME280;34212;51.018;13.586;2023-05-03T12:27:14;98930.38;;;13.36;56.12
43155;BME280;34212;51.018;13.586;2023-05-03T12:32:19;98928.13;;;13.56;56.71
43155;BME280;34212;51.018;13.586;2023-05-03T12:37:40;98932.47;;;13.66;55.35
43155;BME280;34212;51.018;13.586;2023-05-03T12:42:50;98926.56;;;13.78;56.23
43155;BME280;34212;51.018;13.586;2023-05-03T12:48:02;98915.75;;;14.03;56.76
43155;BME280;34212;51.018;13.586;2023-05-03T12:53:33;98922.03;;;14.18;55.42
43155;BME280;34212;51.018;13.586;2023-05-03T12:58:41;98918.94;;;14.29;55.29
43155;BME280;34212;51.018;13.586;2023-05-03T13:04:14;98900.06;;;14.92;54.65
43155;BME280;34212;51.018;13.586;2023-05-03T13:09:32;98895.81;;;17.73;53.42
43155;BME280;34212;51.018;13.586;2023-05-03T13:15:03;98892.34;;;20.45;49.46
43155;BME280;34212;51.018;13.586;2023-05-03T13:20:14;98886.44;;;22.35;46.95
43155;BME280;34212;51.018;13.586;2023-05-03T13:25:22;98896.72;;;23.64;43.71
43155;BME280;34212;51.018;13.586;2023-05-03T13:30:26;98892.16;;;24.57;43.02
43155;BME280;34212;51.018;13.586;2023-05-03T13:35:37;98891.75;;;25.61;42.66
43155;BME280;34212;51.018;13.586;2023-05-03T13:40:42;98879.09;;;25.94;41.97
43155;BME280;34212;51.018;13.586;2023-05-03T13:46:20;98863.97;;;25.30;42.12
43155;BME280;34212;51.018;13.586;2023-05-03T13:52:15;98857.22;;;23.49;42.23
43155;BME280;34212;51.018;13.586;2023-05-03T13:57:44;98849.75;;;21.15;43.61
43155;BME280;34212;51.018;13.586;2023-05-03T14:03:04;98859.97;;;19.73;45.34
43155;BME280;34212;51.018;13.586;2023-05-03T14:08:37;98853.00;;;18.92;45.75
43155;BME280;34212;51.018;13.586;2023-05-03T14:14:10;98855.56;;;18.19;46.06
43155;BME280;34212;51.018;13.586;2023-05-03T14:19:20;98857.28;;;17.79;46.86
43155;BME280;34212;51.018;13.586;2023-05-03T14:24:25;98848.25;;;17.65;47.18
43155;BME280;34212;51.018;13.586;2023-05-03T14:30:05;98836.38;;;17.60;46.67
43155;BME280;34212;51.018;13.586;2023-05-03T14:41:25;98846.50;;;18.54;47.24
43155;BME280;34212;51.018;13.586;2023-05-03T14:46:59;98833.84;;;18.87;46.10
43155;BME280;34212;51.018;13.586;2023-05-03T14:52:16;98842.34;;;18.71;44.95
43155;BME280;34212;51.018;13.586;2023-05-03T14:57:36;98847.28;;;18.34;45.90
43155;BME280;34212;51.018;13.586;2023-05-03T15:14:15;98832.84;;;21.13;43.61
43155;BME280;34212;51.018;13.586;2023-05-03T15:19:44;98852.72;;;20.82;44.09
43155;BME280;34212;51.018;13.586;2023-05-03T15:25:02;98849.34;;;19.58;45.42
43155;BME280;34212;51.018;13.586;2023-05-03T15:30:48;98842.75;;;18.61;45.47
43155;BME280;34212;51.018;13.586;2023-05-03T15:36:35;98827.22;;;17.82;46.40
43155;BME280;34212;51.018;13.586;2023-05-03T15:42:03;98825.56;;;17.53;46.97
43155;BME280;34212;51.018;13.586;2023-05-03T15:47:19;98823.16;;;17.30;46.52
43155;BME280;34212;51.018;13.586;2023-05-03T15:53:00;98817.84;;;17.08;47.54
43155;BME280;34212;51.018;13.586;2023-05-03T15:58:46;98811.72;;;16.93;48.04
43155;BME280;34212;51.018;13.586;2023-05-03T16:04:27;98815.47;;;16.71;47.66
43155;BME280;34212;51.018;13.586;2023-05-03T16:10:04;98816.88;;;16.67;48.07
43155;BME280;34212;51.018;13.586;2023-05-03T16:15:49;98822.28;;;16.67;48.68
43155;BME280;34212;51.018;13.586;2023-05-03T16:20:55;98807.78;;;16.68;48.71
43155;BME280;34212;51.018;13.586;2023-05-03T16:26:40;98794.81;;;17.06;48.97
43155;BME280;34212;51.018;13.586;2023-05-03T16:32:33;98789.50;;;18.09;48.76
43155;BME280;34212;51.018;13.586;2023-05-03T16:38:11;98775.66;;;20.40;47.00
43155;BME280;34212;51.018;13.586;2023-05-03T16:43:48;98779.91;;;22.56;44.43
43155;BME280;34212;51.018;13.586;2023-05-03T16:49:56;98772.44;;;23.69;44.88
43155;BME280;34212;51.018;13.586;2023-05-03T16:55:52;98773.44;;;22.27;45.83
43155;BME280;34212;51.018;13.586;2023-05-03T17:01:21;98769.38;;;20.14;47.11
43155;BME280;34212;51.018;13.586;2023-05-03T17:07:34;98780.22;;;18.58;48.06
43155;BME280;34212;51.018;13.586;2023-05-03T17:13:45;98770.81;;;17.52;49.72
43155;BME280;34212;51.018;13.586;2023-05-03T17:19:33;98771.34;;;17.00;50.64
43155;BME280;34212;51.018;13.586;2023-05-03T17:25:32;98774.31;;;16.55;51.32
43155;BME280;34212;51.018;13.586;2023-05-03T17:31:05;98774.22;;;16.21;52.07
43155;BME280;34212;51.018;13.586;2023-05-03T17:36:59;98776.38;;;15.89;52.39
43155;BME280;34212;51.018;13.586;2023-05-03T17:43:13;98765.00;;;15.57;52.56
43155;BME280;34212;51.018;13.586;2023-05-03T17:49:17;98767.19;;;15.17;54.92
43155;BME280;34212;51.018;13.586;2023-05-03T18:14:52;98788.53;;;14.20;55.40
43155;BME280;34212;51.018;13.586;2023-05-03T18:32:58;98789.97;;;13.54;56.26
43155;BME280;34212;51.018;13.586;2023-05-03T18:38:43;98788.03;;;13.39;56.76
43155;BME280;34212;51.018;13.586;2023-05-03T18:45:00;98794.41;;;13.22;57.41
43155;BME280;34212;51.018;13.586;2023-05-03T18:50:45;98798.81;;;13.07;57.60
43155;BME280;34212;51.018;13.586;2023-05-03T18:56:44;98798.19;;;12.97;57.49
43155;BME280;34212;51.018;13.586;2023-05-03T19:02:19;98802.84;;;12.86;58.06
43155;BME280;34212;51.018;13.586;2023-05-03T19:08:22;98809.22;;;12.77;58.57
43155;BME280;34212;51.018;13.586;2023-05-03T19:20:25;98810.28;;;12.60;58.81
43155;BME280;34212;51.018;13.586;2023-05-03T19:31:54;98808.44;;;12.44;59.16
43155;BME280;34212;51.018;13.586;2023-05-03T19:37:24;98811.25;;;12.42;58.74
43155;BME280;34212;51.018;13.586;2023-05-03T19:42:54;98812.78;;;12.37;58.96
43155;BME280;34212;51.018;13.586;2023-05-03T19:54:39;98808.25;;;12.21;59.83
43155;BME280;34212;51.018;13.586;2023-05-03T20:00:03;98815.59;;;12.11;60.13
43155;BME280;34212;51.018;13.586;2023-05-03T20:06:13;98813.22;;;11.91;60.35
43155;BME280;34212;51.018;13.586;2023-05-03T20:12:03;98826.00;;;11.71;60.99
43155;BME280;34212;51.018;13.586;2023-05-03T20:17:39;98816.75;;;11.57;61.04
43155;BME280;34212;51.018;13.586;2023-05-03T20:22:57;98816.06;;;11.47;61.79
43155;BME280;34212;51.018;13.586;2023-05-03T20:29:07;98812.84;;;11.36;61.97
43155;BME280;34212;51.018;13.586;2023-05-03T20:40:01;98807.88;;;11.15;62.36
43155;BME280;34212;51.018;13.586;2023-05-03T20:45:33;98803.47;;;10.97;62.62
43155;BME280;34212;51.018;13.586;2023-05-03T20:50:38;98797.69;;;10.84;62.20
43155;BME280;34212;51.018;13.586;2023-05-03T20:55:56;98796.66;;;10.77;62.73
43155;BME280;34212;51.018;13.586;2023-05-03T21:01:38;98802.28;;;10.66;62.99
43155;BME280;34212;51.018;13.586;2023-05-03T21:06:41;98805.19;;;10.54;63.11
43155;BME280;34212;51.018;13.586;2023-05-03T21:11:45;98803.63;;;10.44;63.11
43155;BME280;34212;51.018;13.586;2023-05-03T21:16:47;98801.00;;;10.34;63.66
43155;BME280;34212;51.018;13.586;2023-05-03T21:21:51;98799.97;;;10.27;63.39
43155;BME280;34212;51.018;13.586;2023-05-03T21:26:56;98795.38;;;10.19;63.93
43155;BME280;34212;51.018;13.586;2023-05-03T21:31:59;98793.63;;;10.10;63.93
43155;BME280;34212;51.018;13.586;2023-05-03T21:37:03;98789.75;;;10.04;63.52
43155;BME280;34212;51.018;13.586;2023-05-03T21:42:05;98790.34;;;9.98;64.25
43155;BME280;34212;51.018;13.586;2023-05-03T21:47:10;98796.28;;;9.92;64.08
43155;BME280;34212;51.018;13.586;2023-05-03T21:52:12;98790.19;;;9.82;64.84
43155;BME280;34212;51.018;13.586;2023-05-03T21:57:16;98788.44;;;9.73;64.78
